Home > Products > Valid Products > TAF

000
FTUS46 KPDT 302300
TAFALW
TAF
KALW 302320Z 3100/3124 27006KT P6SM BKN200
     FM310200 12007KT P6SM SCT100 BKN200
     FM310900 21008KT P6SM VCSH SCT050 BKN080
     FM311300 22011G17KT P6SM -SHRA BKN040 BKN070
     FM312100 25015G23KT P6SM SCT080=



000
FTUS46 KPDT 302300
TAFPSC
TAF
KPSC 302320Z 3100/3124 22006KT P6SM BKN200
     FM310300 VRB04KT P6SM SCT120 BKN200
     FM311000 24009KT P6SM VCSH SCT060 BKN100
     FM311500 24014G21KT P6SM SCT080 BKN120
     FM312100 25023G33KT P6SM SCT090=



000
FTUS46 KPDT 302300
TAFDLS
TAF
KDLS 302320Z 3100/3124 31011KT P6SM BKN200
     FM310400 31007KT P6SM SCT060 SCT200
     FM310900 30011KT P6SM -SHRA SCT040 BKN060
     FM311600 31014G23KT P6SM VCSH SCT060 SCT100
     FM312000 32022G32KT P6SM FEW070 SCT120=



000
FTUS46 KPDT 302300
TAFPDT
TAF
KPDT 302320Z 3100/3124 32008KT P6SM BKN200
     FM310200 23011KT P6SM SCT080 SCT200
     FM311200 23010KT P6SM -SHRA BKN050 OVC070
     FM311700 26014G23KT P6SM VCSH SCT050 BKN090
     FM312000 28022G32KT P6SM SCT100=



000
FTUS46 KPDT 302300
TAFALW
TAF
KALW 302320Z 3100/3124 27006KT P6SM BKN200
     FM310200 12007KT P6SM SCT100 BKN200
     FM310900 21008KT P6SM VCSH SCT050 BKN080
     FM311300 22011G17KT P6SM -SHRA BKN040 BKN070
     FM312100 25015G23KT P6SM SCT080=



000
FTUS46 KPDT 302300
TAFPSC
TAF
KPSC 302320Z 3100/3124 22006KT P6SM BKN200
     FM310300 VRB04KT P6SM SCT120 BKN200
     FM311000 24009KT P6SM VCSH SCT060 BKN100
     FM311500 24014G21KT P6SM SCT080 BKN120
     FM312100 25023G33KT P6SM SCT090=



000
FTUS46 KPDT 302300
TAFYKM
TAF
KYKM 302320Z 3100/3124 17006KT P6SM BKN200
     FM310400 26007KT P6SM BKN200
     FM310900 27011KT P6SM SCT050 SCT200
     FM311300 27014G20KT P6SM SCT080
     FM312000 28018G25KT P6SM SCT120=



000
FTUS46 KPDT 302300
TAFDLS
TAF
KDLS 302320Z 3100/3124 31011KT P6SM BKN200
     FM310400 31007KT P6SM SCT060 SCT200
     FM310900 30011KT P6SM -SHRA SCT040 BKN060
     FM311600 31014G23KT P6SM VCSH SCT060 SCT100
     FM312000 32022G32KT P6SM FEW070 SCT120=



000
FTUS46 KPDT 302300
TAFPDT
TAF
KPDT 302320Z 3100/3124 32008KT P6SM BKN200
     FM310200 23011KT P6SM SCT080 SCT200
     FM311200 23010KT P6SM -SHRA BKN050 OVC070
     FM311700 26014G23KT P6SM VCSH SCT050 BKN090
     FM312000 28022G32KT P6SM SCT100=



000
FTUS46 KPDT 302300
TAFYKM
TAF
KYKM 302320Z 3100/3124 17006KT P6SM BKN200
     FM310400 26007KT P6SM BKN200
     FM310900 27011KT P6SM SCT050 SCT200
     FM311300 27014G20KT P6SM SCT080
     FM312000 28018G25KT P6SM SCT120=



000
FTUS46 KPDT 302300
TAFRDM
TAF
KRDM 302320Z 3100/3124 35009KT P6SM BKN200
     FM310500 VRB06KT P6SM BKN060
     FM311000 29006KT P6SM -SHRA SCT020 BKN045 BKN080
     FM311600 31011KT P6SM SCT040 BKN070
     FM312100 32017G25KT P6SM VCSH SCT060 BKN100=



000
FTUS46 KPDT 302300
TAFRDM
TAF
KRDM 302320Z 3100/3124 35009KT P6SM BKN200
     FM310500 VRB06KT P6SM BKN060
     FM311000 29006KT P6SM -SHRA SCT020 BKN045 BKN080
     FM311600 31011KT P6SM SCT040 BKN070
     FM312100 32017G25KT P6SM VCSH SCT060 BKN100=



000
FTUS46 KPDT 301700
TAFDLS
TAF
KDLS 301735Z 3018/3118 29005KT P6SM SCT200
     FM302000 32010KT P6SM SCT200
     FM310000 31013KT P6SM FEW080 SCT200
     FM310900 30011KT P6SM -SHRA SCT060 BKN090
     FM311600 30014G20KT P6SM VCSH SCT090=



000
FTUS46 KPDT 301700
TAFPSC
TAF
KPSC 301735Z 3018/3118 21006KT P6SM BKN200
     FM310300 22004KT P6SM SCT120 BKN200
     FM310900 24009KT P6SM VCSH SCT050 BKN080
     FM311500 24014G21KT P6SM SCT080 BKN120=



000
FTUS46 KPDT 301700
TAFRDM
TAF
KRDM 301735Z 3018/3118 VRB05KT P6SM BKN200
     FM302100 33009KT P6SM SCT200
     FM310600 20006KT P6SM BKN050
     FM310900 27006KT P6SM -SHRA SCT025 BKN040 BKN080
     FM311500 31011KT P6SM VCSH SCT040 BKN070=



000
FTUS46 KPDT 301700
TAFPDT
TAF
KPDT 301735Z 3018/3118 25005KT P6SM BKN200
     FM302100 32008KT P6SM BKN200
     FM310200 22007KT P6SM SCT100 SCT200
     FM310900 23010KT P6SM -SHRA SCT050 BKN070 OVC100
     FM311600 26014G23KT P6SM VCSH SCT050 BKN090=



000
FTUS46 KPDT 301700
TAFYKM
TAF
KYKM 301735Z 3018/3118 14004KT P6SM BKN200
     FM310200 25007KT P6SM BKN200
     FM310900 27008KT P6SM VCSH SCT050 BKN080
     FM311300 27011G16KT P6SM SCT080=



000
FTUS46 KPDT 301700
TAFALW
TAF
KALW 301735Z 3018/3118 24005KT P6SM BKN200
     FM302000 27006KT P6SM BKN200
     FM310200 15007KT P6SM SCT200
     FM310900 20008KT P6SM VCSH SCT050 BKN070 OVC100
     FM311300 22011G17KT P6SM -SHRA SCT040 BKN070=



000
FTUS46 KPDT 301700
TAFALW
TAF
KALW 301735Z 3018/3118 24005KT P6SM BKN200
     FM302000 27006KT P6SM BKN200
     FM310200 15007KT P6SM SCT200
     FM310900 20008KT P6SM VCSH SCT050 BKN070 OVC100
     FM311300 22011G17KT P6SM -SHRA SCT040 BKN070=



000
FTUS46 KPDT 301700
TAFYKM
TAF
KYKM 301735Z 3018/3118 14004KT P6SM BKN200
     FM310200 25007KT P6SM BKN200
     FM310900 27008KT P6SM VCSH SCT050 BKN080
     FM311300 27011G16KT P6SM SCT080=



000
FTUS46 KPDT 301700
TAFPSC
TAF
KPSC 301735Z 3018/3118 21006KT P6SM BKN200
     FM310300 22004KT P6SM SCT120 BKN200
     FM310900 24009KT P6SM VCSH SCT050 BKN080
     FM311500 24014G21KT P6SM SCT080 BKN120=



000
FTUS46 KPDT 301700
TAFDLS
TAF
KDLS 301735Z 3018/3118 29005KT P6SM SCT200
     FM302000 32010KT P6SM SCT200
     FM310000 31013KT P6SM FEW080 SCT200
     FM310900 30011KT P6SM -SHRA SCT060 BKN090
     FM311600 30014G20KT P6SM VCSH SCT090=



000
FTUS46 KPDT 301700
TAFPDT
TAF
KPDT 301735Z 3018/3118 25005KT P6SM BKN200
     FM302100 32008KT P6SM BKN200
     FM310200 22007KT P6SM SCT100 SCT200
     FM310900 23010KT P6SM -SHRA SCT050 BKN070 OVC100
     FM311600 26014G23KT P6SM VCSH SCT050 BKN090=



000
FTUS46 KPDT 301700
TAFRDM
TAF
KRDM 301735Z 3018/3118 VRB05KT P6SM BKN200
     FM302100 33009KT P6SM SCT200
     FM310600 20006KT P6SM BKN050
     FM310900 27006KT P6SM -SHRA SCT025 BKN040 BKN080
     FM311500 31011KT P6SM VCSH SCT040 BKN070=



000
FTUS46 KPDT 301100
TAFDLS
TAF
KDLS 301135Z 3012/3112 29005KT P6SM SCT200
     FM302000 32010KT P6SM FEW150 SCT200
     FM310000 32013KT P6SM BKN150
     FM310900 29007KT P6SM -SHRA SCT060 BKN080 BKN120=



000
FTUS46 KPDT 301100
TAFPDT
TAF
KPDT 301135Z 3012/3112 15006KT P6SM SCT200
     FM301600 24005KT P6SM SCT200
     FM302100 32008KT P6SM SCT200
     FM310200 25007KT P6SM SCT200
     FM310900 19004KT P6SM VCSH SCT060 BKN080 OVC120=



000
FTUS46 KPDT 301100
TAFPSC
TAF
KPSC 301135Z 3012/3112 35005KT P6SM SCT200
     FM301900 22008KT P6SM SCT200
     FM310300 20004KT P6SM SCT080 SCT120 BKN200
     FM310900 21006KT P6SM SCT080 BKN120=



000
FTUS46 KPDT 301100
TAFYKM
TAF
KYKM 301135Z 3012/3112 29006KT P6SM FEW150 SCT200
     FM301900 14004KT P6SM FEW150 SCT200
     FM310200 25005KT P6SM SCT150 BKN200
     FM310900 27004KT P6SM VCSH SCT080 BKN120=



000
FTUS46 KPDT 301100
TAFALW
TAF
KALW 301135Z 3012/3112 11007KT P6SM SCT200
     FM301700 22005KT P6SM SCT200
     FM302000 25006KT P6SM SCT200
     FM310200 18007KT P6SM SCT200
     FM310900 17008KT P6SM SCT060 BKN080 OVC120=



000
FTUS46 KPDT 301100
TAFRDM
TAF
KRDM 301135Z 3012/3112 VRB05KT P6SM FEW200
     FM302100 33009KT P6SM SCT200
     FM310600 18004KT P6SM VCSH SCT025 BKN040 BKN080=



000
FTUS46 KPDT 301100
TAFPSC
TAF
KPSC 301135Z 3012/3112 35005KT P6SM SCT200
     FM301900 22008KT P6SM SCT200
     FM310300 20004KT P6SM SCT080 SCT120 BKN200
     FM310900 21006KT P6SM SCT080 BKN120=



000
FTUS46 KPDT 301100
TAFPDT
TAF
KPDT 301135Z 3012/3112 15006KT P6SM SCT200
     FM301600 24005KT P6SM SCT200
     FM302100 32008KT P6SM SCT200
     FM310200 25007KT P6SM SCT200
     FM310900 19004KT P6SM VCSH SCT060 BKN080 OVC120=



000
FTUS46 KPDT 301100
TAFALW
TAF
KALW 301135Z 3012/3112 11007KT P6SM SCT200
     FM301700 22005KT P6SM SCT200
     FM302000 25006KT P6SM SCT200
     FM310200 18007KT P6SM SCT200
     FM310900 17008KT P6SM SCT060 BKN080 OVC120=



000
FTUS46 KPDT 301100
TAFRDM
TAF
KRDM 301135Z 3012/3112 VRB05KT P6SM FEW200
     FM302100 33009KT P6SM SCT200
     FM310600 18004KT P6SM VCSH SCT025 BKN040 BKN080=



000
FTUS46 KPDT 301100
TAFYKM
TAF
KYKM 301135Z 3012/3112 29006KT P6SM FEW150 SCT200
     FM301900 14004KT P6SM FEW150 SCT200
     FM310200 25005KT P6SM SCT150 BKN200
     FM310900 27004KT P6SM VCSH SCT080 BKN120=



000
FTUS46 KPDT 301100
TAFDLS
TAF
KDLS 301135Z 3012/3112 29005KT P6SM SCT200
     FM302000 32010KT P6SM FEW150 SCT200
     FM310000 32013KT P6SM BKN150
     FM310900 29007KT P6SM -SHRA SCT060 BKN080 BKN120=



000
FTUS46 KPDT 300500
TAFALW
TAF
KALW 300520Z 3006/3106 14007KT P6SM SCT200
     FM301700 22005KT P6SM SCT200
     FM302000 25006KT P6SM SCT200
     FM310200 18007KT P6SM SCT200=



000
FTUS46 KPDT 300500
TAFYKM
TAF
KYKM 300520Z 3006/3106 27006KT P6SM FEW150 SCT200
     FM301900 14004KT P6SM FEW150 SCT200
     FM310200 25005KT P6SM SCT150 BKN200=



000
FTUS46 KPDT 300500
TAFYKM
TAF
KYKM 300520Z 3006/3106 27006KT P6SM FEW150 SCT200
     FM301900 14004KT P6SM FEW150 SCT200
     FM310200 25005KT P6SM SCT150 BKN200=



000
FTUS46 KPDT 300500
TAFPSC
TAF
KPSC 300520Z 3006/3106 VRB05KT P6SM SCT200
     FM301900 22008KT P6SM SCT200=



000
FTUS46 KPDT 300500
TAFDLS
TAF
KDLS 300520Z 3006/3106 29005KT P6SM SCT200
     FM302000 32010KT P6SM FEW150 SCT200
     FM310000 32013KT P6SM BKN150=



000
FTUS46 KPDT 300500
TAFDLS
TAF
KDLS 300520Z 3006/3106 29005KT P6SM SCT200
     FM302000 32010KT P6SM FEW150 SCT200
     FM310000 32013KT P6SM BKN150=



000
FTUS46 KPDT 300500
TAFALW
TAF
KALW 300520Z 3006/3106 14007KT P6SM SCT200
     FM301700 22005KT P6SM SCT200
     FM302000 25006KT P6SM SCT200
     FM310200 18007KT P6SM SCT200=



000
FTUS46 KPDT 300500
TAFPDT
TAF
KPDT 300520Z 3006/3106 15006KT P6SM SCT200
     FM301600 24005KT P6SM SCT200
     FM302100 32008KT P6SM SCT200
     FM310200 25007KT P6SM SCT200=



000
FTUS46 KPDT 300500
TAFRDM
TAF
KRDM 300520Z 3006/3106 VRB05KT P6SM FEW200
     FM302100 33009KT P6SM SCT200=



000
FTUS46 KPDT 300500
TAFRDM
TAF
KRDM 300520Z 3006/3106 VRB05KT P6SM FEW200
     FM302100 33009KT P6SM SCT200=



000
FTUS46 KPDT 300500
TAFPDT
TAF
KPDT 300520Z 3006/3106 15006KT P6SM SCT200
     FM301600 24005KT P6SM SCT200
     FM302100 32008KT P6SM SCT200
     FM310200 25007KT P6SM SCT200=



000
FTUS46 KPDT 300500
TAFPSC
TAF
KPSC 300520Z 3006/3106 VRB05KT P6SM SCT200
     FM301900 22008KT P6SM SCT200=



000
FTUS46 KPDT 292300
TAFALW
TAF
KALW 292320Z 3000/3024 28006KT P6SM FEW120 BKN150
     FM300300 16007KT P6SM FEW100 SCT200
     FM301700 22005KT P6SM SCT200
     FM302000 25006KT P6SM SCT200=



000
FTUS46 KPDT 292300
TAFPDT
TAF
KPDT 292320Z 3000/3024 30008KT P6SM SCT200
     FM300400 15006KT P6SM FEW100 SCT200
     FM301700 26005KT P6SM SCT200
     FM302100 31008KT P6SM SCT200=



000
FTUS46 KPDT 292300
TAFYKM
TAF
KYKM 292320Z 3000/3024 VRB05KT P6SM SCT070 BKN150
     FM300300 27006KT P6SM SCT200
     FM301900 16005KT P6SM SCT200=



000
FTUS46 KPDT 292300
TAFPSC
TAF
KPSC 292320Z 3000/3024 22008KT P6SM BKN150
     FM300500 VRB04KT P6SM SCT200
     FM301900 22008KT P6SM SCT200=



000
FTUS46 KPDT 292300
TAFDLS
TAF
KDLS 292320Z 3000/3024 31010G15KT P6SM BKN200
     FM300400 29005KT P6SM SCT200
     FM302100 32011KT P6SM FEW060 SCT200=



000
FTUS46 KPDT 292300
TAFRDM
TAF
KRDM 292320Z 3000/3024 33008KT P6SM BKN200
     FM300300 VRB05KT P6SM BKN200
     FM300900 16005KT P6SM SCT200
     FM302200 33009KT P6SM SCT200=



000
FTUS46 KPDT 292300
TAFALW
TAF
KALW 292320Z 3000/3024 28006KT P6SM FEW120 BKN150
     FM300300 16007KT P6SM FEW100 SCT200
     FM301700 22005KT P6SM SCT200
     FM302000 25006KT P6SM SCT200=



000
FTUS46 KPDT 292300
TAFPDT
TAF
KPDT 292320Z 3000/3024 30008KT P6SM SCT200
     FM300400 15006KT P6SM FEW100 SCT200
     FM301700 26005KT P6SM SCT200
     FM302100 31008KT P6SM SCT200=



000
FTUS46 KPDT 292300
TAFYKM
TAF
KYKM 292320Z 3000/3024 VRB05KT P6SM SCT070 BKN150
     FM300300 27006KT P6SM SCT200
     FM301900 16005KT P6SM SCT200=



000
FTUS46 KPDT 292300
TAFRDM
TAF
KRDM 292320Z 3000/3024 33008KT P6SM BKN200
     FM300300 VRB05KT P6SM BKN200
     FM300900 16005KT P6SM SCT200
     FM302200 33009KT P6SM SCT200=



000
FTUS46 KPDT 292300
TAFDLS
TAF
KDLS 292320Z 3000/3024 31010G15KT P6SM BKN200
     FM300400 29005KT P6SM SCT200
     FM302100 32011KT P6SM FEW060 SCT200=



000
FTUS46 KPDT 292300
TAFPSC
TAF
KPSC 292320Z 3000/3024 22008KT P6SM BKN150
     FM300500 VRB04KT P6SM SCT200
     FM301900 22008KT P6SM SCT200=



000
FTUS46 KPDT 291700
TAFYKM
TAF
KYKM 291720Z 2918/3018 27004KT P6SM SCT100 BKN150
     FM292000 VRB05KT P6SM BKN150
     FM300200 27005KT P6SM SCT150=



000
FTUS46 KPDT 291700
TAFDLS
TAF
KDLS 291720Z 2918/3018 29005KT P6SM SCT150
     FM292000 32011KT P6SM FEW120 SCT180
     FM300600 30005KT P6SM SCT200=



000
FTUS46 KPDT 291700
TAFALW
TAF
KALW 291720Z 2918/3018 25007KT P6SM SKC
     FM292000 26006KT P6SM SCT150
     FM300300 14007KT P6SM FEW100 SCT200
     FM301600 22005KT P6SM SCT200=



000
FTUS46 KPDT 291700
TAFPSC
TAF
KPSC 291720Z 2918/3018 12004KT P6SM BKN100
     FM292000 23008KT P6SM SCT150
     FM300500 VRB04KT P6SM SCT200=



000
FTUS46 KPDT 291700
TAFYKM
TAF
KYKM 291720Z 2918/3018 27004KT P6SM SCT100 BKN150
     FM292000 VRB05KT P6SM BKN150
     FM300200 27005KT P6SM SCT150=



000
FTUS46 KPDT 291700
TAFRDM
TAF
KRDM 291720Z 2918/3018 15005KT P6SM SKC
     FM292000 34008KT P6SM SCT150
     FM300900 16005KT P6SM FEW200=



000
FTUS46 KPDT 291700
TAFDLS
TAF
KDLS 291720Z 2918/3018 29005KT P6SM SCT150
     FM292000 32011KT P6SM FEW120 SCT180
     FM300600 30005KT P6SM SCT200=



000
FTUS46 KPDT 291700
TAFPDT
TAF
KPDT 291720Z 2918/3018 30010KT P6SM SCT150
     FM300000 VRB05KT P6SM SCT120 SCT200
     FM300600 15006KT P6SM FEW100 SCT200
     FM301600 25005KT P6SM SCT200=



000
FTUS46 KPDT 291700
TAFPSC
TAF
KPSC 291720Z 2918/3018 12004KT P6SM BKN100
     FM292000 23008KT P6SM SCT150
     FM300500 VRB04KT P6SM SCT200=



000
FTUS46 KPDT 291700
TAFRDM
TAF
KRDM 291720Z 2918/3018 15005KT P6SM SKC
     FM292000 34008KT P6SM SCT150
     FM300900 16005KT P6SM FEW200=



000
FTUS46 KPDT 291700
TAFALW
TAF
KALW 291720Z 2918/3018 25007KT P6SM SKC
     FM292000 26006KT P6SM SCT150
     FM300300 14007KT P6SM FEW100 SCT200
     FM301600 22005KT P6SM SCT200=



000
FTUS46 KPDT 291700
TAFPDT
TAF
KPDT 291720Z 2918/3018 30010KT P6SM SCT150
     FM300000 VRB05KT P6SM SCT120 SCT200
     FM300600 15006KT P6SM FEW100 SCT200
     FM301600 25005KT P6SM SCT200=



000
FTUS46 KPDT 291100
TAFDLS
TAF
KDLS 291138Z 2912/3012 29005KT P6SM SCT100 BKN120
     FM292000 32012KT P6SM FEW100 SCT120
     FM300600 30004KT P6SM SCT120=



000
FTUS46 KPDT 291100
TAFYKM
TAF
KYKM 291138Z 2912/3012 27005KT P6SM SCT080 BKN120
     FM291800 VRB05KT P6SM FEW080 SCT120
     FM300000 25005KT P6SM SCT120=



000
FTUS46 KPDT 291100
TAFALW
TAF
KALW 291138Z 2912/3012 12006KT P6SM SCT120 BKN150
     FM291500 17007KT P6SM BKN100
     FM291900 22008KT P6SM FEW100 SCT120
     FM300300 14005KT P6SM FEW100 SCT120=



000
FTUS46 KPDT 291100
TAFPSC
TAF
KPSC 291138Z 2912/3012 10004KT P6SM BKN120
     FM291900 23009KT P6SM SCT120
     FM300300 18005KT P6SM FEW120=



000
FTUS46 KPDT 291100
TAFYKM
TAF
KYKM 291138Z 2912/3012 27005KT P6SM SCT080 BKN120
     FM291800 VRB05KT P6SM FEW080 SCT120
     FM300000 25005KT P6SM SCT120=



000
FTUS46 KPDT 291100
TAFPSC
TAF
KPSC 291138Z 2912/3012 10004KT P6SM BKN120
     FM291900 23009KT P6SM SCT120
     FM300300 18005KT P6SM FEW120=



000
FTUS46 KPDT 291100
TAFRDM
TAF
KRDM 291138Z 2912/3012 12003KT P6SM SCT100 BKN120
     FM292000 32008KT P6SM SCT120
     FM300900 15002KT P6SM FEW120=



000
FTUS46 KPDT 291100
TAFDLS
TAF
KDLS 291138Z 2912/3012 29005KT P6SM SCT100 BKN120
     FM292000 32012KT P6SM FEW100 SCT120
     FM300600 30004KT P6SM SCT120=



000
FTUS46 KPDT 291100
TAFPDT
TAF
KPDT 291138Z 2912/3012 15005KT P6SM SCT120 BKN150
     FM291500 VRB05KT P6SM BKN100
     FM291900 27008KT P6SM FEW100 SCT150
     FM300000 VRB04KT P6SM SCT120
     FM300600 15004KT P6SM SCT120=



000
FTUS46 KPDT 291100
TAFRDM
TAF
KRDM 291138Z 2912/3012 12003KT P6SM SCT100 BKN120
     FM292000 32008KT P6SM SCT120
     FM300900 15002KT P6SM FEW120=



000
FTUS46 KPDT 291100
TAFALW
TAF
KALW 291138Z 2912/3012 12006KT P6SM SCT120 BKN150
     FM291500 17007KT P6SM BKN100
     FM291900 22008KT P6SM FEW100 SCT120
     FM300300 14005KT P6SM FEW100 SCT120=



000
FTUS46 KPDT 291100
TAFPDT
TAF
KPDT 291138Z 2912/3012 15005KT P6SM SCT120 BKN150
     FM291500 VRB05KT P6SM BKN100
     FM291900 27008KT P6SM FEW100 SCT150
     FM300000 VRB04KT P6SM SCT120
     FM300600 15004KT P6SM SCT120=



000
FTUS46 KPDT 290500
TAFYKM
TAF
KYKM 290520Z 2906/3006 26006KT P6SM SCT120 BKN180
     FM290900 27005KT P6SM SCT080 BKN120
     FM291800 VRB05KT P6SM FEW080 SCT120=



000
FTUS46 KPDT 290500
TAFPSC
TAF
KPSC 290520Z 2906/3006 23005KT P6SM BKN200
     FM290900 21005KT P6SM SCT120 BKN150
     FM291200 20004KT P6SM BKN120
     FM291900 23009KT P6SM SCT120=



000
FTUS46 KPDT 290500
TAFDLS
TAF
KDLS 290520Z 2906/3006 31006KT P6SM SCT120 BKN150
     FM290900 29005KT P6SM SCT100 BKN120
     FM292000 32012KT P6SM FEW100 SCT150=



000
FTUS46 KPDT 290500
TAFPDT
TAF
KPDT 290520Z 2906/3006 16006KT P6SM SCT200
     FM291000 15005KT P6SM SCT120 BKN150
     FM291500 VRB05KT P6SM BKN100
     FM291900 27008KT P6SM FEW100 SCT150=



000
FTUS46 KPDT 290500
TAFDLS
TAF
KDLS 290520Z 2906/3006 31006KT P6SM SCT120 BKN150
     FM290900 29005KT P6SM SCT100 BKN120
     FM292000 32012KT P6SM FEW100 SCT150=



000
FTUS46 KPDT 290500
TAFYKM
TAF
KYKM 290520Z 2906/3006 26006KT P6SM SCT120 BKN180
     FM290900 27005KT P6SM SCT080 BKN120
     FM291800 VRB05KT P6SM FEW080 SCT120=



000
FTUS46 KPDT 290500
TAFRDM
TAF
KRDM 290520Z 2906/3006 VRB04KT P6SM BKN200
     FM290900 VRB03KT P6SM SCT100 BKN120
     FM292000 32008KT P6SM SCT120=



000
FTUS46 KPDT 290500
TAFALW
TAF
KALW 290520Z 2906/3006 17007KT P6SM SCT200
     FM291000 15006KT P6SM SCT120 BKN150
     FM291500 17007KT P6SM BKN100
     FM291900 22008KT P6SM FEW100 SCT120=



000
FTUS46 KPDT 290500
TAFALW
TAF
KALW 290520Z 2906/3006 17007KT P6SM SCT200
     FM291000 15006KT P6SM SCT120 BKN150
     FM291500 17007KT P6SM BKN100
     FM291900 22008KT P6SM FEW100 SCT120=



000
FTUS46 KPDT 290500
TAFRDM
TAF
KRDM 290520Z 2906/3006 VRB04KT P6SM BKN200
     FM290900 VRB03KT P6SM SCT100 BKN120
     FM292000 32008KT P6SM SCT120=



000
FTUS46 KPDT 290500
TAFPDT
TAF
KPDT 290520Z 2906/3006 16006KT P6SM SCT200
     FM291000 15005KT P6SM SCT120 BKN150
     FM291500 VRB05KT P6SM BKN100
     FM291900 27008KT P6SM FEW100 SCT150=



000
FTUS46 KPDT 290500
TAFPSC
TAF
KPSC 290520Z 2906/3006 23005KT P6SM BKN200
     FM290900 21005KT P6SM SCT120 BKN150
     FM291200 20004KT P6SM BKN120
     FM291900 23009KT P6SM SCT120=



000
FTUS46 KPDT 282300
TAFYKM
TAF
KYKM 282320Z 2900/2924 28011KT P6SM SCT070 SCT200
     FM290200 28008KT P6SM SCT200
     FM291300 27005KT P6SM SCT080 BKN100
     FM292000 25006KT P6SM FEW070 SCT150=



000
FTUS46 KPDT 282300
TAFRDM
TAF
KRDM 282320Z 2900/2924 05008KT P6SM BKN200
     FM290300 VRB04KT P6SM BKN200
     FM290700 16004KT P6SM SCT100
     FM292000 32008KT P6SM FEW150=



000
FTUS46 KPDT 282300
TAFPDT
TAF
KPDT 282320Z 2900/2924 27016G25KT P6SM SCT250
     FM290200 27011KT P6SM FEW250
     FM290600 14005KT P6SM SCT200
     FM291300 16005KT P6SM BKN120
     FM292100 27011KT P6SM FEW100 SCT150=



000
FTUS46 KPDT 282300
TAFPSC
TAF
KPSC 282320Z 2900/2924 23017KT P6SM FEW080
     FM290300 23011KT P6SM SKC
     FM290900 21005KT P6SM SCT100
     FM291200 20006KT P6SM BKN120
     FM291900 23009KT P6SM SCT100=



000
FTUS46 KPDT 282300
TAFDLS
TAF
KDLS 282320Z 2900/2924 32012G20KT P6SM FEW060 FEW250
     FM290200 31011KT P6SM SCT250
     FM290900 29005KT P6SM BKN100
     FM291200 VRB04KT P6SM SCT100
     FM292000 32011KT P6SM FEW080 SCT180=



000
FTUS46 KPDT 282300
TAFALW
TAF
KALW 282320Z 2900/2924 24014G21KT P6SM SCT050 SCT250
     FM290300 17007KT P6SM FEW050
     FM290600 15006KT P6SM SCT250
     FM291200 17007KT P6SM BKN100
     FM291900 22010KT P6SM SCT100=



000
FTUS46 KPDT 282200 AAB
TAFYKM
TAF AMD
KYKM 282200Z 2822/2918 27011KT P6SM SCT070
     FM290200 29008KT P6SM FEW100 SCT200
     FM290500 27007KT P6SM SCT090
     FM291300 27005KT P6SM SCT070 BKN100=



000
FTUS46 KPDT 282000 AAA
TAFYKM
TAF AMD
KYKM 282000Z 2820/2918 28012G20KT P6SM SCT060 SCT150
     FM290200 29010KT P6SM FEW100 SCT200
     FM290500 27007KT P6SM SCT090
     FM291300 27005KT P6SM SCT070 BKN100=



000
FTUS46 KPDT 281700
TAFPSC
TAF
KPSC 281720Z 2818/2918 23025G35KT P6SM FEW060
     FM282300 24018G28KT P6SM SCT060
     FM290300 23011KT P6SM FEW090 SCT250
     FM290700 21005KT P6SM FEW100
     FM291200 20006KT P6SM SCT080 BKN120=



000
FTUS46 KPDT 281700
TAFDLS
TAF
KDLS 281720Z 2818/2918 32014G21KT P6SM BKN050
     FM282000 32017G25KT P6SM SCT060 SCT100
     FM290200 31011KT P6SM FEW080 SCT250
     FM290900 29004KT P6SM BKN120
     FM291400 VRB04KT P6SM BKN090=



000
FTUS46 KPDT 281700
TAFYKM
TAF
KYKM 281720Z 2818/2918 29018G24KT P6SM SCT060
     FM282000 25012G20KT P6SM SCT060 SCT150
     FM290200 29010KT P6SM FEW100 SCT200
     FM290500 27007KT P6SM SCT090
     FM291300 27005KT P6SM SCT070 BKN100=



000
FTUS46 KPDT 281700
TAFPDT
TAF
KPDT 281720Z 2818/2918 26022G31KT P6SM FEW050
     FM282100 27017G26KT P6SM SCT060
     FM290200 27011KT P6SM FEW060 FEW250
     FM290600 14005KT P6SM SKC
     FM291300 16005KT P6SM SCT120=



000
FTUS46 KPDT 281700
TAFRDM
TAF
KRDM 281720Z 2818/2918 33009KT P6SM SCT150
     FM282200 33010KT P6SM SCT150
     FM290300 32004KT P6SM SCT120
     FM290600 16004KT P6SM SCT120=



000
FTUS46 KPDT 281700
TAFPDT
TAF
KPDT 281720Z 2818/2918 26022G31KT P6SM FEW050
     FM282100 27017G26KT P6SM SCT060
     FM290200 27011KT P6SM FEW060 FEW250
     FM290600 14005KT P6SM SKC
     FM291300 16005KT P6SM SCT120=



000
FTUS46 KPDT 281700
TAFRDM
TAF
KRDM 281720Z 2818/2918 33009KT P6SM SCT150
     FM282200 33010KT P6SM SCT150
     FM290300 32004KT P6SM SCT120
     FM290600 16004KT P6SM SCT120=



000
FTUS46 KPDT 281700
TAFDLS
TAF
KDLS 281720Z 2818/2918 32014G21KT P6SM BKN050
     FM282000 32017G25KT P6SM SCT060 SCT100
     FM290200 31011KT P6SM FEW080 SCT250
     FM290900 29004KT P6SM BKN120
     FM291400 VRB04KT P6SM BKN090=



000
FTUS46 KPDT 281700
TAFALW
TAF
KALW 281720Z 2818/2918 23021G29KT P6SM FEW040
     FM282100 23014G23KT P6SM SCT050
     FM290300 17007KT P6SM FEW050 SCT250
     FM290600 15006KT P6SM SKC
     FM291200 17007KT P6SM SCT120=



000
FTUS46 KPDT 281500 AAA
TAFPDT
TAF AMD
KPDT 281524Z 2815/2912 24013KT P6SM SKC
     FM281700 25020G29KT P6SM SCT050
     FM282100 25015G24KT P6SM FEW060
     FM290200 20008KT P6SM FEW250
     FM290600 12005KT P6SM BKN250=



000
FTUS46 KPDT 281500 AAA
TAFDLS
TAF AMD
KDLS 281521Z 2815/2912 30011KT P6SM SCT050
     FM281800 29014G22KT P6SM FEW050
     FM282000 31018G26KT P6SM FEW080 SCT200
     FM290200 30010G16KT P6SM BKN250
     FM290900 VRB02KT P6SM BKN250=



000
FTUS46 KPDT 281500 AAA
TAFDLS
TAF AMD
KDLS 281521Z 2815/2912 30011KT P6SM SCT050
     FM281800 29014G22KT P6SM FEW050
     FM282000 31018G26KT P6SM FEW080 SCT200
     FM290200 30010G16KT P6SM BKN250
     FM290900 VRB02KT P6SM BKN250=



000
FTUS46 KPDT 281500 AAA
TAFYKM
TAF AMD
KYKM 281519Z 2815/2912 27011KT P6SM SCT060
     FM281700 29012G19KT P6SM SCT060
     FM282000 25012G18KT P6SM SCT200
     FM290300 29006KT P6SM FEW150 SCT200=



000
FTUS46 KPDT 281100
TAFDLS
TAF
KDLS 281132Z 2812/2912 30010G16KT P6SM VCSH FEW060 SCT080
     FM281300 29016G24KT P6SM FEW060
     FM281800 31018G26KT P6SM FEW060 SCT200
     FM290200 30010G16KT P6SM BKN250
     FM290900 VRB02KT P6SM BKN250=



000
FTUS46 KPDT 281100
TAFYKM
TAF
KYKM 281132Z 2812/2912 27010G18KT P6SM SCT070
     FM281500 29012G19KT P6SM SKC
     FM282000 25012G18KT P6SM SCT200
     FM290300 29006KT P6SM FEW150 SCT200=



000
FTUS46 KPDT 281100
TAFPSC
TAF
KPSC 281132Z 2812/2912 22018G28KT P6SM SCT070
     FM281500 22020G30KT P6SM SKC
     FM282300 24012G19KT P6SM SCT250
     FM290300 20006KT P6SM SCT250=



000
FTUS46 KPDT 281100
TAFPDT
TAF
KPDT 281132Z 2812/2912 26015G25KT P6SM -SHRA BKN040 OVC060
     FM281300 25022G32KT P6SM BKN050
     FM281600 25020G29KT P6SM SCT050
     FM282100 25015G24KT P6SM FEW060
     FM290200 20008KT P6SM FEW250
     FM290600 12005KT P6SM BKN250=



000
FTUS46 KPDT 281100
TAFYKM
TAF
KYKM 281132Z 2812/2912 27010G18KT P6SM SCT070
     FM281500 29012G19KT P6SM SKC
     FM282000 25012G18KT P6SM SCT200
     FM290300 29006KT P6SM FEW150 SCT200=



000
FTUS46 KPDT 281100
TAFALW
TAF
KALW 281132Z 2812/2912 23015G25KT P6SM VCSH BKN050 OVC060
     FM281300 23019G27KT P6SM BKN050
     FM281600 23021G29KT P6SM SCT050
     FM282100 23014G22KT P6SM FEW050
     FM290300 17007KT P6SM SCT250
     FM290600 13006KT P6SM SCT250=



000
FTUS46 KPDT 281100
TAFRDM
TAF
KRDM 281132Z 2812/2912 28010KT P6SM SKC
     FM282000 32010KT P6SM SCT250
     FM290300 32004KT P6SM SKC
     FM290600 15002KT P6SM SCT250=



000
FTUS46 KPDT 281100
TAFALW
TAF
KALW 281132Z 2812/2912 23015G25KT P6SM VCSH BKN050 OVC060
     FM281300 23019G27KT P6SM BKN050
     FM281600 23021G29KT P6SM SCT050
     FM282100 23014G22KT P6SM FEW050
     FM290300 17007KT P6SM SCT250
     FM290600 13006KT P6SM SCT250=



000
FTUS46 KPDT 281100
TAFPSC
TAF
KPSC 281132Z 2812/2912 22018G28KT P6SM SCT070
     FM281500 22020G30KT P6SM SKC
     FM282300 24012G19KT P6SM SCT250
     FM290300 20006KT P6SM SCT250=



000
FTUS46 KPDT 281100
TAFDLS
TAF
KDLS 281132Z 2812/2912 30010G16KT P6SM VCSH FEW060 SCT080
     FM281300 29016G24KT P6SM FEW060
     FM281800 31018G26KT P6SM FEW060 SCT200
     FM290200 30010G16KT P6SM BKN250
     FM290900 VRB02KT P6SM BKN250=



000
FTUS46 KPDT 281100
TAFPDT
TAF
KPDT 281132Z 2812/2912 26015G25KT P6SM -SHRA BKN040 OVC060
     FM281300 25022G32KT P6SM BKN050
     FM281600 25020G29KT P6SM SCT050
     FM282100 25015G24KT P6SM FEW060
     FM290200 20008KT P6SM FEW250
     FM290600 12005KT P6SM BKN250=



000
FTUS46 KPDT 281100
TAFRDM
TAF
KRDM 281132Z 2812/2912 28010KT P6SM SKC
     FM282000 32010KT P6SM SCT250
     FM290300 32004KT P6SM SKC
     FM290600 15002KT P6SM SCT250=



000
FTUS46 KPDT 280800 AAC
TAFALW
TAF AMD
KALW 280843Z 2809/2906 23010G20KT 2SM RA BR SCT030 BKN050 OVC060
     FM281000 23015G25KT P6SM VCSH BKN050 OVC060
     FM281300 23019G27KT P6SM BKN050
     FM281600 23021G29KT P6SM SCT050
     FM282100 23014G22KT P6SM FEW050
     FM290300 17007KT P6SM SCT250=



000
FTUS46 KPDT 280800 AAB
TAFPDT
TAF AMD
KPDT 280819Z 2808/2906 26018G28KT 2SM -TSRA SCT025 BKN040CB
      OVC050CB
     FM280900 26027G37KT P6SM -SHRA BKN040 OVC060
     FM281300 25022G32KT P6SM BKN050
     FM281600 25020G29KT P6SM SCT050
     FM282100 25015G24KT P6SM FEW060
     FM290200 20008KT P6SM FEW250=



000
FTUS46 KPDT 280800 AAB
TAFPDT
TAF AMD
KPDT 280819Z 2808/2906 26018G28KT 2SM -TSRA SCT025 BKN040CB
      OVC050CB
     FM280900 26027G37KT P6SM -SHRA BKN040 OVC060
     FM281300 25022G32KT P6SM BKN050
     FM281600 25020G29KT P6SM SCT050
     FM282100 25015G24KT P6SM FEW060
     FM290200 20008KT P6SM FEW250=



000
FTUS46 KPDT 280800 AAB
TAFALW
TAF AMD
KALW 280818Z 2808/2906 23010G20KT P6SM -SHRA SCT030 BKN050 OVC060
     FM281000 23015G25KT P6SM VCSH BKN050 OVC060
     FM281300 23019G27KT P6SM BKN050
     FM281600 23021G29KT P6SM SCT050
     FM282100 23014G22KT P6SM FEW050
     FM290300 17007KT P6SM SCT250=



000
FTUS46 KPDT 280800 AAB
TAFALW
TAF AMD
KALW 280818Z 2808/2906 23010G20KT P6SM -SHRA SCT030 BKN050 OVC060
     FM281000 23015G25KT P6SM VCSH BKN050 OVC060
     FM281300 23019G27KT P6SM BKN050
     FM281600 23021G29KT P6SM SCT050
     FM282100 23014G22KT P6SM FEW050
     FM290300 17007KT P6SM SCT250=



000
FTUS46 KPDT 280700 AAB
TAFPSC
TAF AMD
KPSC 280735Z 2808/2906 22010KT P6SM -SHRA SCT070 OVC090
     FM280900 22020G30KT P6SM BKN070
     FM281100 22018G28KT P6SM SCT070
     FM281500 22020G30KT P6SM SKC
     FM282300 24012G19KT P6SM SCT250=



000
FTUS46 KPDT 280700 AAA
TAFALW
TAF AMD
KALW 280734Z 2808/2906 22013KT P6SM VCSH SCT090 BKN100
     FM280900 23023G30KT P6SM -SHRA BKN050 OVC060
     FM281300 23019G27KT P6SM BKN050
     FM281600 23021G29KT P6SM SCT050
     FM282100 23014G22KT P6SM FEW050
     FM290300 17007KT P6SM SCT250=



000
FTUS46 KPDT 280700 AAA
TAFPDT
TAF AMD
KPDT 280712Z 2807/2906 26018G28KT P6SM VCTS OVC070CB
      TEMPO 2807/2808 -TSRA OVC060CB
     FM280900 26027G37KT P6SM -SHRA BKN040 OVC060
     FM281300 25022G32KT P6SM BKN050
     FM281600 25020G29KT P6SM SCT050
     FM282100 25015G24KT P6SM FEW060
     FM290200 20008KT P6SM FEW250=



000
FTUS46 KPDT 280700 AAA
TAFYKM
TAF AMD
KYKM 280703Z 2807/2906 28013G23KT P6SM SCT080 BKN120
     FM280900 26020G28KT P6SM SCT070
     FM281500 29012G19KT P6SM SKC
     FM282000 25012G18KT P6SM SCT200
     FM290300 29006KT P6SM SCT200=



000
FTUS46 KPDT 280600 AAA
TAFPSC
TAF AMD
KPSC 280642Z 2807/2906 22010KT P6SM -SHRA SCT070 OVC090
      TEMPO 2807/2808 28015G25KT P6SM -TSRA SCT060CB BKN080
     FM280900 22020G30KT P6SM BKN070
     FM281100 22018G28KT P6SM SCT070
     FM281500 22020G30KT P6SM SKC
     FM282300 24012G19KT P6SM SCT250=



000
FTUS46 KPDT 280500 CCA
TAFALW
TAF COR
KALW 280543Z 2806/2906 22013KT P6SM VCSH SCT090 BKN100
      TEMPO 2806/2808 28015G26KT 6SM -TSRA SCT060CB
     FM280900 23023G30KT P6SM -SHRA BKN050 OVC060
     FM281300 23019G27KT P6SM BKN050
     FM281600 23021G29KT P6SM SCT050
     FM282100 23014G22KT P6SM FEW050
     FM290300 17007KT P6SM SCT250=



000
FTUS46 KPDT 280500 CCA
TAFALW
TAF COR
KALW 280543Z 2806/2906 22013KT P6SM VCSH SCT090 BKN100
      TEMPO 2806/2808 28015G26KT 6SM -TSRA SCT060CB
     FM280900 23023G30KT P6SM -SHRA BKN050 OVC060
     FM281300 23019G27KT P6SM BKN050
     FM281600 23021G29KT P6SM SCT050
     FM282100 23014G22KT P6SM FEW050
     FM290300 17007KT P6SM SCT250=



000
FTUS46 KPDT 280500
TAFRDM
TAF
KRDM 280540Z 2806/2906 29013G21KT P6SM VCSH SCT100
     FM280900 30014KT P6SM SCT060
     FM281200 28009KT P6SM SKC
     FM282000 32010KT P6SM SCT250
     FM290300 32004KT P6SM SKC=



000
FTUS46 KPDT 280500
TAFALW
TAF
KALW 280540Z 2806/2906 22013KT P6SM VCSH SCT090 BKN100
      TEMPO 2807/2809 28015G26KT 6SM -TSRA SCT060CB
     FM280900 23023G30KT P6SM -SHRA BKN050 OVC060
     FM281300 23019G27KT P6SM BKN050
     FM281600 23021G29KT P6SM SCT050
     FM282100 23014G22KT P6SM FEW050
     FM290300 17007KT P6SM SCT250=



000
FTUS46 KPDT 280500
TAFPDT
TAF
KPDT 280540Z 2806/2906 26018G28KT P6SM -SHRA BKN050 OVC070
     FM280900 26027G37KT P6SM -SHRA BKN040 OVC060
     FM281300 25022G32KT P6SM BKN050
     FM281600 25020G29KT P6SM SCT050
     FM282100 25015G24KT P6SM FEW060
     FM290200 20008KT P6SM FEW250=



000
FTUS46 KPDT 280500
TAFDLS
TAF
KDLS 280540Z 2806/2906 30020G30KT P6SM VCSH FEW060 SCT080
     FM281300 29016G24KT P6SM FEW060
     FM281800 31018G26KT P6SM FEW060 SCT200
     FM290200 30010G16KT P6SM BKN250=



000
FTUS46 KPDT 280500
TAFPSC
TAF
KPSC 280540Z 2806/2906 22013G22KT P6SM -SHRA SCT070 BKN090
      TEMPO 2806/2807 28015G26KT 6SM -TSRA SCT060CB
     FM280900 22020G30KT P6SM BKN070
     FM281100 22018G28KT P6SM SCT070
     FM281500 22020G30KT P6SM SKC
     FM282300 24012G19KT P6SM SCT250=



000
FTUS46 KPDT 280500
TAFYKM
TAF
KYKM 280540Z 2806/2906 28011KT P6SM SCT070 BKN100
     FM280900 26020G28KT P6SM SCT070
     FM281500 29012G19KT P6SM SKC
     FM282000 25012G18KT P6SM SCT200
     FM290300 29006KT P6SM SCT200=



000
FTUS46 KPDT 280500
TAFYKM
TAF
KYKM 280540Z 2806/2906 28011KT P6SM SCT070 BKN100
     FM280900 26020G28KT P6SM SCT070
     FM281500 29012G19KT P6SM SKC
     FM282000 25012G18KT P6SM SCT200
     FM290300 29006KT P6SM SCT200=



000
FTUS46 KPDT 280500
TAFDLS
TAF
KDLS 280540Z 2806/2906 30020G30KT P6SM VCSH FEW060 SCT080
     FM281300 29016G24KT P6SM FEW060
     FM281800 31018G26KT P6SM FEW060 SCT200
     FM290200 30010G16KT P6SM BKN250=



000
FTUS46 KPDT 280500
TAFALW
TAF
KALW 280540Z 2806/2906 22013KT P6SM VCSH SCT090 BKN100
      TEMPO 2807/2809 28015G26KT 6SM -TSRA SCT060CB
     FM280900 23023G30KT P6SM -SHRA BKN050 OVC060
     FM281300 23019G27KT P6SM BKN050
     FM281600 23021G29KT P6SM SCT050
     FM282100 23014G22KT P6SM FEW050
     FM290300 17007KT P6SM SCT250=



000
FTUS46 KPDT 280500
TAFRDM
TAF
KRDM 280540Z 2806/2906 29013G21KT P6SM VCSH SCT100
     FM280900 30014KT P6SM SCT060
     FM281200 28009KT P6SM SKC
     FM282000 32010KT P6SM SCT250
     FM290300 32004KT P6SM SKC=



000
FTUS46 KPDT 280500
TAFPDT
TAF
KPDT 280540Z 2806/2906 26018G28KT P6SM -SHRA BKN050 OVC070
     FM280900 26027G37KT P6SM -SHRA BKN040 OVC060
     FM281300 25022G32KT P6SM BKN050
     FM281600 25020G29KT P6SM SCT050
     FM282100 25015G24KT P6SM FEW060
     FM290200 20008KT P6SM FEW250=



000
FTUS46 KPDT 280500
TAFPSC
TAF
KPSC 280540Z 2806/2906 22013G22KT P6SM -SHRA SCT070 BKN090
      TEMPO 2806/2807 28015G26KT 6SM -TSRA SCT060CB
     FM280900 22020G30KT P6SM BKN070
     FM281100 22018G28KT P6SM SCT070
     FM281500 22020G30KT P6SM SKC
     FM282300 24012G19KT P6SM SCT250=



    US Dept of Commerce
    National Oceanic and Atmospheric Administration
    National Weather Service
    1325 East West Highway
    Silver Spring, MD 20910
    Page Author: NWS Internet Services Team
Disclaimer
Information Quality
Credits
Glossary
Privacy Policy
Freedom of Information Act (FOIA)
About Us
Career Opportunities